sensor_id;sensor_type;location;lat;lon;timestamp;temperature;humidity
15543;DHT22;7873;52.230;12.856;2023-04-25T00:00:44;22.00;42.10
15543;DHT22;7873;52.230;12.856;2023-04-25T00:03:11;22.00;42.10
15543;DHT22;7873;52.230;12.856;2023-04-25T00:05:39;22.00;42.10
15543;DHT22;7873;52.230;12.856;2023-04-25T00:08:07;22.00;42.10
15543;DHT22;7873;52.230;12.856;2023-04-25T00:10:34;21.90;42.10
15543;DHT22;7873;52.230;12.856;2023-04-25T00:13:00;21.90;42.10
15543;DHT22;7873;52.230;12.856;2023-04-25T00:15:28;21.90;42.20
15543;DHT22;7873;52.230;12.856;2023-04-25T00:17:55;22.00;42.10
15543;DHT22;7873;52.230;12.856;2023-04-25T00:20:22;22.00;42.20
15543;DHT22;7873;52.230;12.856;2023-04-25T00:22:50;21.90;42.10
15543;DHT22;7873;52.230;12.856;2023-04-25T00:25:19;21.90;42.50
15543;DHT22;7873;52.230;12.856;2023-04-25T00:27:46;21.90;42.40
15543;DHT22;7873;52.230;12.856;2023-04-25T00:30:13;21.90;42.40
15543;DHT22;7873;52.230;12.856;2023-04-25T00:32:40;21.80;42.50
15543;DHT22;7873;52.230;12.856;2023-04-25T00:35:07;21.90;42.40
15543;DHT22;7873;52.230;12.856;2023-04-25T00:37:35;21.80;42.50
15543;DHT22;7873;52.230;12.856;2023-04-25T00:40:01;21.80;42.50
15543;DHT22;7873;52.230;12.856;2023-04-25T00:42:32;21.90;42.40
15543;DHT22;7873;52.230;12.856;2023-04-25T00:45:01;21.80;42.50
15543;DHT22;7873;52.230;12.856;2023-04-25T00:47:27;21.90;42.40
15543;DHT22;7873;52.230;12.856;2023-04-25T00:49:55;21.80;42.40
15543;DHT22;7873;52.230;12.856;2023-04-25T00:52:21;21.90;42.40
15543;DHT22;7873;52.230;12.856;2023-04-25T00:54:48;21.80;42.30
15543;DHT22;7873;52.230;12.856;2023-04-25T00:57:15;21.80;42.30
15543;DHT22;7873;52.230;12.856;2023-04-25T00:59:45;21.80;42.40
15543;DHT22;7873;52.230;12.856;2023-04-25T01:02:12;21.80;42.40
15543;DHT22;7873;52.230;12.856;2023-04-25T01:04:39;21.80;42.40
15543;DHT22;7873;52.230;12.856;2023-04-25T01:07:06;21.80;42.40
15543;DHT22;7873;52.230;12.856;2023-04-25T01:09:33;21.80;42.40
15543;DHT22;7873;52.230;12.856;2023-04-25T01:12:00;21.90;42.40
15543;DHT22;7873;52.230;12.856;2023-04-25T01:14:28;21.80;42.30
15543;DHT22;7873;52.230;12.856;2023-04-25T01:16:56;21.80;42.30
15543;DHT22;7873;52.230;12.856;2023-04-25T01:19:23;21.80;42.40
15543;DHT22;7873;52.230;12.856;2023-04-25T01:21:51;21.80;42.50
15543;DHT22;7873;52.230;12.856;2023-04-25T01:24:18;21.80;42.50
15543;DHT22;7873;52.230;12.856;2023-04-25T01:26:45;21.80;42.50
15543;DHT22;7873;52.230;12.856;2023-04-25T01:29:15;21.80;42.50
15543;DHT22;7873;52.230;12.856;2023-04-25T01:31:42;21.80;42.40
15543;DHT22;7873;52.230;12.856;2023-04-25T01:34:10;21.80;42.50
15543;DHT22;7873;52.230;12.856;2023-04-25T01:36:37;21.80;42.50
15543;DHT22;7873;52.230;12.856;2023-04-25T01:39:05;21.80;42.50
15543;DHT22;7873;52.230;12.856;2023-04-25T01:41:32;21.80;42.50
15543;DHT22;7873;52.230;12.856;2023-04-25T01:44:00;21.80;42.40
15543;DHT22;7873;52.230;12.856;2023-04-25T01:46:27;21.90;42.40
15543;DHT22;7873;52.230;12.856;2023-04-25T01:48:54;21.90;42.30
15543;DHT22;7873;52.230;12.856;2023-04-25T01:51:21;21.90;42.30
15543;DHT22;7873;52.230;12.856;2023-04-25T01:53:48;21.80;42.30
15543;DHT22;7873;52.230;12.856;2023-04-25T01:56:16;21.90;42.40
15543;DHT22;7873;52.230;12.856;2023-04-25T01:58:44;21.90;42.40
15543;DHT22;7873;52.230;12.856;2023-04-25T02:01:11;21.80;42.50
15543;DHT22;7873;52.230;12.856;2023-04-25T02:03:38;21.80;42.50
15543;DHT22;7873;52.230;12.856;2023-04-25T02:06:05;21.80;42.50
15543;DHT22;7873;52.230;12.856;2023-04-25T02:08:31;21.80;42.50
15543;DHT22;7873;52.230;12.856;2023-04-25T02:10:58;21.80;42.50
15543;DHT22;7873;52.230;12.856;2023-04-25T02:13:26;21.80;42.50
15543;DHT22;7873;52.230;12.856;2023-04-25T02:15:53;21.80;42.50
15543;DHT22;7873;52.230;12.856;2023-04-25T02:18:20;21.80;42.50
15543;DHT22;7873;52.230;12.856;2023-04-25T02:20:47;21.80;42.60
15543;DHT22;7873;52.230;12.856;2023-04-25T02:23:13;21.80;42.60
15543;DHT22;7873;52.230;12.856;2023-04-25T02:25:41;21.80;42.60
15543;DHT22;7873;52.230;12.856;2023-04-25T02:28:07;21.80;42.40
15543;DHT22;7873;52.230;12.856;2023-04-25T02:30:35;21.80;42.50
15543;DHT22;7873;52.230;12.856;2023-04-25T02:33:02;21.80;42.40
15543;DHT22;7873;52.230;12.856;2023-04-25T02:35:29;21.80;42.40
15543;DHT22;7873;52.230;12.856;2023-04-25T02:37:56;21.70;42.50
15543;DHT22;7873;52.230;12.856;2023-04-25T02:40:22;21.80;42.50
15543;DHT22;7873;52.230;12.856;2023-04-25T02:42:49;21.70;42.50
15543;DHT22;7873;52.230;12.856;2023-04-25T02:45:16;21.70;42.50
15543;DHT22;7873;52.230;12.856;2023-04-25T02:47:44;21.70;42.50
15543;DHT22;7873;52.230;12.856;2023-04-25T02:50:11;21.70;42.50
15543;DHT22;7873;52.230;12.856;2023-04-25T02:52:38;21.70;42.50
15543;DHT22;7873;52.230;12.856;2023-04-25T02:55:05;21.70;42.60
15543;DHT22;7873;52.230;12.856;2023-04-25T02:57:32;21.70;42.70
15543;DHT22;7873;52.230;12.856;2023-04-25T02:59:59;21.70;42.60
15543;DHT22;7873;52.230;12.856;2023-04-25T03:02:25;21.60;42.70
15543;DHT22;7873;52.230;12.856;2023-04-25T03:04:53;21.60;42.60
15543;DHT22;7873;52.230;12.856;2023-04-25T03:07:20;21.70;42.60
15543;DHT22;7873;52.230;12.856;2023-04-25T03:09:47;21.60;42.60
15543;DHT22;7873;52.230;12.856;2023-04-25T03:12:14;21.60;42.60
15543;DHT22;7873;52.230;12.856;2023-04-25T03:14:41;21.60;42.60
15543;DHT22;7873;52.230;12.856;2023-04-25T03:17:08;21.60;42.70
15543;DHT22;7873;52.230;12.856;2023-04-25T03:19:35;21.50;43.10
15543;DHT22;7873;52.230;12.856;2023-04-25T03:22:03;21.50;43.00
15543;DHT22;7873;52.230;12.856;2023-04-25T03:24:30;21.50;42.80
15543;DHT22;7873;52.230;12.856;2023-04-25T03:26:56;21.50;43.00
15543;DHT22;7873;52.230;12.856;2023-04-25T03:29:23;21.50;43.10
15543;DHT22;7873;52.230;12.856;2023-04-25T03:31:51;21.60;43.40
15543;DHT22;7873;52.230;12.856;2023-04-25T03:34:18;21.60;43.50
15543;DHT22;7873;52.230;12.856;2023-04-25T03:36:46;21.60;43.40
15543;DHT22;7873;52.230;12.856;2023-04-25T03:39:14;21.60;43.30
15543;DHT22;7873;52.230;12.856;2023-04-25T03:41:41;21.70;43.30
15543;DHT22;7873;52.230;12.856;2023-04-25T03:44:08;21.70;43.40
15543;DHT22;7873;52.230;12.856;2023-04-25T03:46:35;21.70;43.60
15543;DHT22;7873;52.230;12.856;2023-04-25T03:49:01;21.70;43.40
15543;DHT22;7873;52.230;12.856;2023-04-25T03:51:28;21.80;43.50
15543;DHT22;7873;52.230;12.856;2023-04-25T03:53:56;21.70;43.70
15543;DHT22;7873;52.230;12.856;2023-04-25T03:56:24;21.80;43.70
15543;DHT22;7873;52.230;12.856;2023-04-25T03:58:51;21.80;43.80
15543;DHT22;7873;52.230;12.856;2023-04-25T04:01:17;21.70;44.00
15543;DHT22;7873;52.230;12.856;2023-04-25T04:03:44;21.80;44.00
15543;DHT22;7873;52.230;12.856;2023-04-25T04:06:11;21.80;44.00
15543;DHT22;7873;52.230;12.856;2023-04-25T04:08:38;21.90;44.10
15543;DHT22;7873;52.230;12.856;2023-04-25T04:11:05;21.90;44.00
15543;DHT22;7873;52.230;12.856;2023-04-25T04:13:33;21.90;43.90
15543;DHT22;7873;52.230;12.856;2023-04-25T04:16:00;21.90;44.00
15543;DHT22;7873;52.230;12.856;2023-04-25T04:18:26;21.90;43.80
15543;DHT22;7873;52.230;12.856;2023-04-25T04:20:53;21.70;43.40
15543;DHT22;7873;52.230;12.856;2023-04-25T04:23:20;21.70;43.00
15543;DHT22;7873;52.230;12.856;2023-04-25T04:25:48;21.80;42.60
15543;DHT22;7873;52.230;12.856;2023-04-25T04:28:14;21.80;42.70
15543;DHT22;7873;52.230;12.856;2023-04-25T04:30:43;21.80;42.90
15543;DHT22;7873;52.230;12.856;2023-04-25T04:33:11;21.80;43.00
15543;DHT22;7873;52.230;12.856;2023-04-25T04:35:38;21.80;42.60
15543;DHT22;7873;52.230;12.856;2023-04-25T04:38:05;21.80;42.60
15543;DHT22;7873;52.230;12.856;2023-04-25T04:40:32;21.80;43.20
15543;DHT22;7873;52.230;12.856;2023-04-25T04:42:58;21.70;42.30
15543;DHT22;7873;52.230;12.856;2023-04-25T04:45:25;21.70;41.50
15543;DHT22;7873;52.230;12.856;2023-04-25T04:47:54;21.70;41.50
15543;DHT22;7873;52.230;12.856;2023-04-25T04:50:21;21.70;41.60
15543;DHT22;7873;52.230;12.856;2023-04-25T04:52:48;21.80;41.60
15543;DHT22;7873;52.230;12.856;2023-04-25T04:55:15;21.80;41.80
15543;DHT22;7873;52.230;12.856;2023-04-25T04:57:41;21.70;41.70
15543;DHT22;7873;52.230;12.856;2023-04-25T05:00:09;21.70;42.10
15543;DHT22;7873;52.230;12.856;2023-04-25T05:02:36;21.60;42.10
15543;DHT22;7873;52.230;12.856;2023-04-25T05:05:06;21.60;42.30
15543;DHT22;7873;52.230;12.856;2023-04-25T05:07:34;21.60;42.20
15543;DHT22;7873;52.230;12.856;2023-04-25T05:10:01;21.60;42.20
15543;DHT22;7873;52.230;12.856;2023-04-25T05:12:27;21.60;42.30
15543;DHT22;7873;52.230;12.856;2023-04-25T05:14:54;21.70;42.20
15543;DHT22;7873;52.230;12.856;2023-04-25T05:17:21;21.70;42.20
15543;DHT22;7873;52.230;12.856;2023-04-25T05:19:48;21.60;42.50
15543;DHT22;7873;52.230;12.856;2023-04-25T05:22:16;21.60;42.80
15543;DHT22;7873;52.230;12.856;2023-04-25T05:24:43;21.50;43.20
15543;DHT22;7873;52.230;12.856;2023-04-25T05:27:10;21.40;43.00
15543;DHT22;7873;52.230;12.856;2023-04-25T05:29:36;21.40;43.10
15543;DHT22;7873;52.230;12.856;2023-04-25T05:32:05;21.50;42.80
15543;DHT22;7873;52.230;12.856;2023-04-25T05:34:32;21.50;42.60
15543;DHT22;7873;52.230;12.856;2023-04-25T05:36:59;21.60;42.60
15543;DHT22;7873;52.230;12.856;2023-04-25T05:39:27;21.60;42.60
15543;DHT22;7873;52.230;12.856;2023-04-25T05:41:54;21.60;42.60
15543;DHT22;7873;52.230;12.856;2023-04-25T05:44:21;21.60;42.50
15543;DHT22;7873;52.230;12.856;2023-04-25T05:46:47;21.60;42.50
15543;DHT22;7873;52.230;12.856;2023-04-25T05:49:14;21.60;42.60
15543;DHT22;7873;52.230;12.856;2023-04-25T05:51:41;21.60;42.50
15543;DHT22;7873;52.230;12.856;2023-04-25T05:54:08;21.60;42.50
15543;DHT22;7873;52.230;12.856;2023-04-25T05:56:36;21.50;42.50
15543;DHT22;7873;52.230;12.856;2023-04-25T05:59:02;21.60;42.60
15543;DHT22;7873;52.230;12.856;2023-04-25T06:01:29;21.60;42.50
15543;DHT22;7873;52.230;12.856;2023-04-25T06:03:56;21.60;42.60
15543;DHT22;7873;52.230;12.856;2023-04-25T06:06:23;21.60;42.60
15543;DHT22;7873;52.230;12.856;2023-04-25T06:08:49;21.60;42.50
15543;DHT22;7873;52.230;12.856;2023-04-25T06:11:16;21.50;42.60
15543;DHT22;7873;52.230;12.856;2023-04-25T06:13:45;21.50;42.60
15543;DHT22;7873;52.230;12.856;2023-04-25T06:16:12;21.50;42.50
15543;DHT22;7873;52.230;12.856;2023-04-25T06:18:39;21.50;42.60
15543;DHT22;7873;52.230;12.856;2023-04-25T06:21:05;21.50;42.70
15543;DHT22;7873;52.230;12.856;2023-04-25T06:23:32;21.50;42.70
15543;DHT22;7873;52.230;12.856;2023-04-25T06:25:59;21.50;42.60
15543;DHT22;7873;52.230;12.856;2023-04-25T06:28:25;21.50;42.70
15543;DHT22;7873;52.230;12.856;2023-04-25T06:30:53;21.50;42.60
15543;DHT22;7873;52.230;12.856;2023-04-25T06:33:20;21.50;42.50
15543;DHT22;7873;52.230;12.856;2023-04-25T06:35:47;21.50;42.50
15543;DHT22;7873;52.230;12.856;2023-04-25T06:38:14;21.50;42.40
15543;DHT22;7873;52.230;12.856;2023-04-25T06:40:41;21.50;42.50
15543;DHT22;7873;52.230;12.856;2023-04-25T06:43:08;21.50;42.50
15543;DHT22;7873;52.230;12.856;2023-04-25T06:45:35;21.50;42.50
15543;DHT22;7873;52.230;12.856;2023-04-25T06:48:03;21.50;42.60
15543;DHT22;7873;52.230;12.856;2023-04-25T06:50:30;21.50;42.60
15543;DHT22;7873;52.230;12.856;2023-04-25T06:52:56;21.40;42.50
15543;DHT22;7873;52.230;12.856;2023-04-25T06:55:23;21.40;42.50
15543;DHT22;7873;52.230;12.856;2023-04-25T06:57:50;21.40;42.60
15543;DHT22;7873;52.230;12.856;2023-04-25T07:00:17;21.40;42.60
15543;DHT22;7873;52.230;12.856;2023-04-25T07:02:44;21.50;42.50
15543;DHT22;7873;52.230;12.856;2023-04-25T07:05:12;21.40;42.40
15543;DHT22;7873;52.230;12.856;2023-04-25T07:07:39;21.40;42.60
15543;DHT22;7873;52.230;12.856;2023-04-25T07:10:06;21.40;42.50
15543;DHT22;7873;52.230;12.856;2023-04-25T07:12:33;21.40;42.60
15543;DHT22;7873;52.230;12.856;2023-04-25T07:14:59;21.40;42.60
15543;DHT22;7873;52.230;12.856;2023-04-25T07:17:31;21.40;42.60
15543;DHT22;7873;52.230;12.856;2023-04-25T07:19:58;21.30;42.60
15543;DHT22;7873;52.230;12.856;2023-04-25T07:22:27;21.40;42.60
15543;DHT22;7873;52.230;12.856;2023-04-25T07:24:53;21.40;42.50
15543;DHT22;7873;52.230;12.856;2023-04-25T07:27:20;21.40;42.50
15543;DHT22;7873;52.230;12.856;2023-04-25T07:29:47;21.30;42.50
15543;DHT22;7873;52.230;12.856;2023-04-25T07:32:14;21.30;42.60
15543;DHT22;7873;52.230;12.856;2023-04-25T07:34:40;21.40;42.60
15543;DHT22;7873;52.230;12.856;2023-04-25T07:37:07;21.30;42.60
15543;DHT22;7873;52.230;12.856;2023-04-25T07:39:35;21.30;42.70
15543;DHT22;7873;52.230;12.856;2023-04-25T07:42:02;21.30;42.60
15543;DHT22;7873;52.230;12.856;2023-04-25T07:44:31;21.30;43.30
15543;DHT22;7873;52.230;12.856;2023-04-25T07:47:04;21.30;42.60
15543;DHT22;7873;52.230;12.856;2023-04-25T07:49:32;21.20;43.30
15543;DHT22;7873;52.230;12.856;2023-04-25T07:51:59;21.30;42.60
15543;DHT22;7873;52.230;12.856;2023-04-25T07:54:26;21.30;42.60
15543;DHT22;7873;52.230;12.856;2023-04-25T07:56:54;21.30;42.60
15543;DHT22;7873;52.230;12.856;2023-04-25T07:59:21;21.30;42.60
15543;DHT22;7873;52.230;12.856;2023-04-25T08:01:47;21.30;42.60
15543;DHT22;7873;52.230;12.856;2023-04-25T08:04:14;21.30;42.60
15543;DHT22;7873;52.230;12.856;2023-04-25T08:06:41;21.30;42.60
15543;DHT22;7873;52.230;12.856;2023-04-25T08:09:08;21.30;42.60
15543;DHT22;7873;52.230;12.856;2023-04-25T08:11:35;21.30;42.60
15543;DHT22;7873;52.230;12.856;2023-04-25T08:14:03;21.20;42.60
15543;DHT22;7873;52.230;12.856;2023-04-25T08:16:30;21.20;42.50
15543;DHT22;7873;52.230;12.856;2023-04-25T08:18:56;21.20;42.50
15543;DHT22;7873;52.230;12.856;2023-04-25T08:21:23;21.20;42.60
15543;DHT22;7873;52.230;12.856;2023-04-25T08:23:50;21.20;42.60
15543;DHT22;7873;52.230;12.856;2023-04-25T08:26:17;21.20;42.60
15543;DHT22;7873;52.230;12.856;2023-04-25T08:28:44;21.20;42.50
15543;DHT22;7873;52.230;12.856;2023-04-25T08:31:12;21.20;42.50
15543;DHT22;7873;52.230;12.856;2023-04-25T08:33:39;21.20;42.50
15543;DHT22;7873;52.230;12.856;2023-04-25T08:36:05;21.30;42.50
15543;DHT22;7873;52.230;12.856;2023-04-25T08:38:32;21.30;42.40
15543;DHT22;7873;52.230;12.856;2023-04-25T08:40:59;21.30;42.40
15543;DHT22;7873;52.230;12.856;2023-04-25T08:43:27;21.30;42.50
15543;DHT22;7873;52.230;12.856;2023-04-25T08:45:57;21.30;42.40
15543;DHT22;7873;52.230;12.856;2023-04-25T08:48:27;21.30;42.40
15543;DHT22;7873;52.230;12.856;2023-04-25T08:50:55;21.20;42.40
15543;DHT22;7873;52.230;12.856;2023-04-25T08:53:25;21.20;42.40
15543;DHT22;7873;52.230;12.856;2023-04-25T08:55:53;21.30;42.40
15543;DHT22;7873;52.230;12.856;2023-04-25T08:58:20;21.30;42.40
15543;DHT22;7873;52.230;12.856;2023-04-25T09:00:48;21.20;42.30
15543;DHT22;7873;52.230;12.856;2023-04-25T09:03:15;21.20;42.50
15543;DHT22;7873;52.230;12.856;2023-04-25T09:05:44;21.20;42.50
15543;DHT22;7873;52.230;12.856;2023-04-25T09:08:10;21.20;42.50
15543;DHT22;7873;52.230;12.856;2023-04-25T09:10:37;21.20;42.50
15543;DHT22;7873;52.230;12.856;2023-04-25T09:13:05;21.20;42.50
15543;DHT22;7873;52.230;12.856;2023-04-25T09:15:46;21.20;42.50
15543;DHT22;7873;52.230;12.856;2023-04-25T09:18:16;21.20;42.40
15543;DHT22;7873;52.230;12.856;2023-04-25T09:20:50;21.30;42.50
15543;DHT22;7873;52.230;12.856;2023-04-25T09:23:18;21.20;42.30
15543;DHT22;7873;52.230;12.856;2023-04-25T09:25:46;21.20;42.30
15543;DHT22;7873;52.230;12.856;2023-04-25T09:28:13;21.20;42.30
15543;DHT22;7873;52.230;12.856;2023-04-25T09:30:40;21.20;42.30
15543;DHT22;7873;52.230;12.856;2023-04-25T09:33:08;21.20;42.30
15543;DHT22;7873;52.230;12.856;2023-04-25T09:35:36;21.20;42.60
15543;DHT22;7873;52.230;12.856;2023-04-25T09:38:09;21.20;42.40
15543;DHT22;7873;52.230;12.856;2023-04-25T09:40:40;21.20;42.40
15543;DHT22;7873;52.230;12.856;2023-04-25T09:43:10;21.20;42.50
15543;DHT22;7873;52.230;12.856;2023-04-25T09:45:45;21.20;42.50
15543;DHT22;7873;52.230;12.856;2023-04-25T09:48:15;21.20;42.40
15543;DHT22;7873;52.230;12.856;2023-04-25T09:50:43;21.20;42.50
15543;DHT22;7873;52.230;12.856;2023-04-25T09:53:11;21.20;42.50
15543;DHT22;7873;52.230;12.856;2023-04-25T09:55:38;21.20;42.50
15543;DHT22;7873;52.230;12.856;2023-04-25T09:58:07;21.10;42.50
15543;DHT22;7873;52.230;12.856;2023-04-25T10:00:36;21.10;42.50
15543;DHT22;7873;52.230;12.856;2023-04-25T10:03:04;21.10;42.50
15543;DHT22;7873;52.230;12.856;2023-04-25T10:05:32;21.10;42.60
15543;DHT22;7873;52.230;12.856;2023-04-25T10:08:02;21.10;42.50
15543;DHT22;7873;52.230;12.856;2023-04-25T10:10:31;21.10;42.50
15543;DHT22;7873;52.230;12.856;2023-04-25T10:13:04;21.10;42.50
15543;DHT22;7873;52.230;12.856;2023-04-25T10:15:32;21.10;42.50
15543;DHT22;7873;52.230;12.856;2023-04-25T10:18:01;21.20;42.50
15543;DHT22;7873;52.230;12.856;2023-04-25T10:20:29;21.20;42.50
15543;DHT22;7873;52.230;12.856;2023-04-25T10:22:58;21.10;42.50
15543;DHT22;7873;52.230;12.856;2023-04-25T10:25:31;21.10;42.50
15543;DHT22;7873;52.230;12.856;2023-04-25T10:27:59;21.10;42.50
15543;DHT22;7873;52.230;12.856;2023-04-25T10:30:27;21.10;42.50
15543;DHT22;7873;52.230;12.856;2023-04-25T10:32:54;21.10;42.50
15543;DHT22;7873;52.230;12.856;2023-04-25T10:35:24;21.10;42.50
15543;DHT22;7873;52.230;12.856;2023-04-25T10:37:58;21.10;42.40
15543;DHT22;7873;52.230;12.856;2023-04-25T10:40:31;21.20;42.40
15543;DHT22;7873;52.230;12.856;2023-04-25T10:45:59;21.20;42.30
15543;DHT22;7873;52.230;12.856;2023-04-25T10:48:26;21.10;42.30
15543;DHT22;7873;52.230;12.856;2023-04-25T10:51:06;21.10;42.40
15543;DHT22;7873;52.230;12.856;2023-04-25T10:53:33;21.10;42.40
15543;DHT22;7873;52.230;12.856;2023-04-25T10:56:01;21.10;42.40
15543;DHT22;7873;52.230;12.856;2023-04-25T10:58:36;21.10;43.20
15543;DHT22;7873;52.230;12.856;2023-04-25T11:01:02;21.10;42.50
15543;DHT22;7873;52.230;12.856;2023-04-25T11:03:29;21.10;42.40
15543;DHT22;7873;52.230;12.856;2023-04-25T11:05:57;21.10;42.30
15543;DHT22;7873;52.230;12.856;2023-04-25T11:08:27;21.20;42.20
15543;DHT22;7873;52.230;12.856;2023-04-25T11:11:04;21.20;42.50
15543;DHT22;7873;52.230;12.856;2023-04-25T11:13:31;21.10;42.30
15543;DHT22;7873;52.230;12.856;2023-04-25T11:15:58;21.20;42.30
15543;DHT22;7873;52.230;12.856;2023-04-25T11:18:25;21.10;42.30
15543;DHT22;7873;52.230;12.856;2023-04-25T11:20:52;21.10;42.40
15543;DHT22;7873;52.230;12.856;2023-04-25T11:23:19;21.10;42.40
15543;DHT22;7873;52.230;12.856;2023-04-25T11:25:46;21.00;42.30
15543;DHT22;7873;52.230;12.856;2023-04-25T11:28:20;21.00;42.30
15543;DHT22;7873;52.230;12.856;2023-04-25T11:30:47;21.00;42.40
15543;DHT22;7873;52.230;12.856;2023-04-25T11:33:15;21.10;42.50
15543;DHT22;7873;52.230;12.856;2023-04-25T11:35:42;21.10;42.30
15543;DHT22;7873;52.230;12.856;2023-04-25T11:38:08;21.10;42.40
15543;DHT22;7873;52.230;12.856;2023-04-25T11:40:36;21.10;42.30
15543;DHT22;7873;52.230;12.856;2023-04-25T11:43:02;21.10;42.40
15543;DHT22;7873;52.230;12.856;2023-04-25T11:45:31;21.10;42.30
15543;DHT22;7873;52.230;12.856;2023-04-25T11:47:57;21.10;42.40
15543;DHT22;7873;52.230;12.856;2023-04-25T11:50:24;21.10;42.40
15543;DHT22;7873;52.230;12.856;2023-04-25T11:52:55;21.10;42.30
15543;DHT22;7873;52.230;12.856;2023-04-25T11:55:23;21.10;42.30
15543;DHT22;7873;52.230;12.856;2023-04-25T11:57:50;21.10;42.20
15543;DHT22;7873;52.230;12.856;2023-04-25T12:00:17;21.10;42.20
15543;DHT22;7873;52.230;12.856;2023-04-25T12:02:47;21.10;42.10
15543;DHT22;7873;52.230;12.856;2023-04-25T12:05:17;21.10;42.10
15543;DHT22;7873;52.230;12.856;2023-04-25T12:07:45;21.10;42.10
15543;DHT22;7873;52.230;12.856;2023-04-25T12:10:12;21.10;42.10
15543;DHT22;7873;52.230;12.856;2023-04-25T12:12:41;21.10;42.10
15543;DHT22;7873;52.230;12.856;2023-04-25T12:15:09;21.10;42.10
15543;DHT22;7873;52.230;12.856;2023-04-25T12:17:38;21.10;42.10
15543;DHT22;7873;52.230;12.856;2023-04-25T12:20:07;21.10;42.20
15543;DHT22;7873;52.230;12.856;2023-04-25T12:22:35;21.10;42.00
15543;DHT22;7873;52.230;12.856;2023-04-25T12:25:02;21.10;42.10
15543;DHT22;7873;52.230;12.856;2023-04-25T12:27:30;21.10;42.10
15543;DHT22;7873;52.230;12.856;2023-04-25T12:29:59;21.00;42.10
15543;DHT22;7873;52.230;12.856;2023-04-25T12:32:27;21.10;42.20
15543;DHT22;7873;52.230;12.856;2023-04-25T12:34:53;21.10;42.10
15543;DHT22;7873;52.230;12.856;2023-04-25T12:37:22;21.10;42.10
15543;DHT22;7873;52.230;12.856;2023-04-25T12:39:49;21.10;42.10
15543;DHT22;7873;52.230;12.856;2023-04-25T12:42:15;21.00;42.10
15543;DHT22;7873;52.230;12.856;2023-04-25T12:44:42;21.00;42.20
15543;DHT22;7873;52.230;12.856;2023-04-25T12:47:09;21.00;42.10
15543;DHT22;7873;52.230;12.856;2023-04-25T12:49:35;21.10;42.20
15543;DHT22;7873;52.230;12.856;2023-04-25T12:52:02;21.00;42.20
15543;DHT22;7873;52.230;12.856;2023-04-25T12:54:30;21.00;42.20
15543;DHT22;7873;52.230;12.856;2023-04-25T12:56:57;21.00;42.20
15543;DHT22;7873;52.230;12.856;2023-04-25T12:59:24;21.00;42.20
15543;DHT22;7873;52.230;12.856;2023-04-25T13:01:51;21.00;42.10
15543;DHT22;7873;52.230;12.856;2023-04-25T13:04:18;21.00;42.20
15543;DHT22;7873;52.230;12.856;2023-04-25T13:06:46;21.00;42.20
15543;DHT22;7873;52.230;12.856;2023-04-25T13:09:12;21.00;42.20
15543;DHT22;7873;52.230;12.856;2023-04-25T13:11:41;21.00;42.10
15543;DHT22;7873;52.230;12.856;2023-04-25T13:14:08;21.00;42.10
15543;DHT22;7873;52.230;12.856;2023-04-25T13:16:36;21.00;42.10
15543;DHT22;7873;52.230;12.856;2023-04-25T13:19:02;21.00;42.10
15543;DHT22;7873;52.230;12.856;2023-04-25T13:21:29;21.00;42.10
15543;DHT22;7873;52.230;12.856;2023-04-25T13:23:57;21.00;42.20
15543;DHT22;7873;52.230;12.856;2023-04-25T13:26:23;21.00;42.20
15543;DHT22;7873;52.230;12.856;2023-04-25T13:28:51;21.00;42.20
15543;DHT22;7873;52.230;12.856;2023-04-25T13:31:18;21.00;42.20
15543;DHT22;7873;52.230;12.856;2023-04-25T13:33:45;20.90;42.30
15543;DHT22;7873;52.230;12.856;2023-04-25T13:36:11;21.00;42.20
15543;DHT22;7873;52.230;12.856;2023-04-25T13:38:38;21.00;42.10
15543;DHT22;7873;52.230;12.856;2023-04-25T13:41:07;21.00;42.10
15543;DHT22;7873;52.230;12.856;2023-04-25T13:43:36;21.00;42.00
15543;DHT22;7873;52.230;12.856;2023-04-25T13:46:04;21.10;42.10
15543;DHT22;7873;52.230;12.856;2023-04-25T13:48:31;21.10;42.00
15543;DHT22;7873;52.230;12.856;2023-04-25T13:50:58;21.10;41.90
15543;DHT22;7873;52.230;12.856;2023-04-25T13:53:24;21.10;41.90
15543;DHT22;7873;52.230;12.856;2023-04-25T13:55:51;21.00;42.00
15543;DHT22;7873;52.230;12.856;2023-04-25T13:58:18;21.10;42.00
15543;DHT22;7873;52.230;12.856;2023-04-25T14:00:45;21.00;42.00
15543;DHT22;7873;52.230;12.856;2023-04-25T14:03:13;21.00;42.10
15543;DHT22;7873;52.230;12.856;2023-04-25T14:05:40;20.90;42.10
15543;DHT22;7873;52.230;12.856;2023-04-25T14:08:07;21.00;42.10
15543;DHT22;7873;52.230;12.856;2023-04-25T14:10:35;21.00;42.20
15543;DHT22;7873;52.230;12.856;2023-04-25T14:13:02;20.90;42.50
15543;DHT22;7873;52.230;12.856;2023-04-25T14:15:31;20.80;42.70
15543;DHT22;7873;52.230;12.856;2023-04-25T14:17:57;21.00;42.60
15543;DHT22;7873;52.230;12.856;2023-04-25T14:20:26;21.00;42.50
15543;DHT22;7873;52.230;12.856;2023-04-25T14:22:53;21.10;42.50
15543;DHT22;7873;52.230;12.856;2023-04-25T14:25:21;21.20;42.30
15543;DHT22;7873;52.230;12.856;2023-04-25T14:27:48;21.20;42.20
15543;DHT22;7873;52.230;12.856;2023-04-25T14:30:16;21.30;42.00
15543;DHT22;7873;52.230;12.856;2023-04-25T14:32:43;21.30;42.00
15543;DHT22;7873;52.230;12.856;2023-04-25T14:35:10;21.20;42.00
15543;DHT22;7873;52.230;12.856;2023-04-25T14:37:38;21.20;42.80
15543;DHT22;7873;52.230;12.856;2023-04-25T14:40:06;21.20;42.00
15543;DHT22;7873;52.230;12.856;2023-04-25T14:42:35;21.30;42.00
15543;DHT22;7873;52.230;12.856;2023-04-25T14:45:02;21.30;42.00
15543;DHT22;7873;52.230;12.856;2023-04-25T14:47:31;21.30;42.00
15543;DHT22;7873;52.230;12.856;2023-04-25T14:49:58;21.20;42.10
15543;DHT22;7873;52.230;12.856;2023-04-25T14:52:25;21.10;42.20
15543;DHT22;7873;52.230;12.856;2023-04-25T14:54:53;21.10;42.30
15543;DHT22;7873;52.230;12.856;2023-04-25T14:57:19;21.10;42.30
15543;DHT22;7873;52.230;12.856;2023-04-25T14:59:46;21.10;42.50
15543;DHT22;7873;52.230;12.856;2023-04-25T15:02:13;21.10;42.30
15543;DHT22;7873;52.230;12.856;2023-04-25T15:04:40;21.10;42.30
15543;DHT22;7873;52.230;12.856;2023-04-25T15:07:06;21.10;42.30
15543;DHT22;7873;52.230;12.856;2023-04-25T15:09:33;21.10;42.30
15543;DHT22;7873;52.230;12.856;2023-04-25T15:12:01;21.10;42.20
15543;DHT22;7873;52.230;12.856;2023-04-25T15:14:29;21.10;42.30
15543;DHT22;7873;52.230;12.856;2023-04-25T15:16:55;21.10;42.20
15543;DHT22;7873;52.230;12.856;2023-04-25T15:19:22;21.10;42.20
15543;DHT22;7873;52.230;12.856;2023-04-25T15:21:49;21.10;42.30
15543;DHT22;7873;52.230;12.856;2023-04-25T15:24:16;21.10;42.20
15543;DHT22;7873;52.230;12.856;2023-04-25T15:26:43;21.10;42.20
15543;DHT22;7873;52.230;12.856;2023-04-25T15:29:12;21.10;42.20
15543;DHT22;7873;52.230;12.856;2023-04-25T15:31:39;21.10;42.30
15543;DHT22;7873;52.230;12.856;2023-04-25T15:34:06;21.10;42.20